Baldwin Harbor, New York
Current Conditions -  °F | °C
As of 2:51 AM on Friday 21 Nov 2014 (Local Time) from KJFK Reporting Station
Clear Clear  
Wind Chill: 17°   Ceiling: Unl
Heat Index: 30°   Visibility: 10mi
Dew Point:   Wind: 21mph
Humidity: 36%   Direction: 290°WNW
Pressure: 30.1"   Gusts: 24mph
Location:  40.6539°N, 73.609°W
Report Text: KJFK 210751Z 29018G21KT 10SM CLR M01/M14 A3010 RMK AO2 PK WND 30027/0721 SLP191 T10111144
Loading
Personal Weather Stations






























Interactive Weather Map New forecast layout! Learn more

10-Day Weather Forecast

Advertisements
Track Severe Weather on mobile